Currently 67°F in Riverside (Orangecrest), California, USA
67°F
70°F / 67°F
4 mph SW
0.00"
Thursday, August 16, 2018 3:32 AM PDT

Riverside (Orangecrest), California Weather Summary
Last 36 Hours

Temperature Winds Hourly Humidity Dewpoint
Time Report Norm Report Norm Max Gusts Precip. Rpt. Norm Rpt. Norm Pressure
1,3Thu 03:32 AM  67.0°F  66°F  4 mph SW  2 mph  5 mph  0.00"  78%  71%  60°F  56°F  29.96"
Thu 03:00 AM  67.8°F  67°F  calm  2 mph  5 mph  0.00"  76%  71%  60°F  57°F  29.96"
Thu 02:00 AM  67.8°F  67°F  1 mph S  3 mph  7 mph  0.00"  76%  69%  60°F  56°F  29.95"
Thu 01:00 AM  68.5°F  68°F  3 mph SW  3 mph  7 mph  0.00"  73%  66%  59°F  56°F  29.96"
2Thu 12:01 AM  69.9°F  69°F  2 mph S  3 mph  5 mph  ----  68%  64%  59°F  56°F  29.97"
Thu 12:00 AM  69.8°F  69°F  3 mph S  3 mph  7 mph  0.00"  68%  63%  58°F  56°F  29.96"
Wed 11:00 PM  70.5°F  70°F  2 mph S  4 mph  7 mph  0.00"  66%  59%  58°F  55°F  29.95"
Wed 10:00 PM  71.5°F  72°F  3 mph SW  4 mph  9 mph  0.00"  64%  54%  58°F  53°F  29.95"
Wed 09:00 PM  73.1°F  73°F  4 mph SW  5 mph  9 mph  0.00"  61%  49%  59°F  52°F  29.93"
Wed 08:00 PM  74.7°F  76°F  4 mph SW  6 mph  12 mph  0.00"  58%  45%  58°F  52°F  29.91"
Wed 07:00 PM  78.0°F  79°F  6 mph SW  6 mph  17 mph  0.00"  51%  38%  58°F  50°F  29.88"
Wed 06:00 PM  81.5°F  81°F  8 mph SW  8 mph  15 mph  0.00"  43%  33%  56°F  49°F  29.86"
Wed 05:00 PM  84.0°F  84°F  8 mph SW  7 mph  14 mph  0.00"  38%  30%  55°F  48°F  29.86"
Wed 04:00 PM  86.3°F  85°F  6 mph SW  8 mph  16 mph  0.00"  36%  29%  55°F  48°F  29.87"
Wed 03:00 PM  86.9°F  86°F  9 mph SW  7 mph  15 mph  0.00"  32%  27%  53°F  48°F  29.87"
Wed 02:00 PM  86.7°F  85°F  5 mph SW  6 mph  14 mph  0.00"  31%  28%  51°F  48°F  29.89"
Wed 01:00 PM  85.1°F  84°F  5 mph SW  6 mph  10 mph  0.00"  31%  31%  50°F  49°F  29.91"
Wed 12:00 PM  82.7°F  82°F  5 mph SW  5 mph  10 mph  0.00"  33%  33%  50°F  50°F  29.92"
Wed 11:00 AM  79.2°F  80°F  2 mph S  4 mph  9 mph  0.00"  42%  39%  54°F  52°F  29.93"
Wed 10:00 AM  75.1°F  77°F  3 mph SW  3 mph  9 mph  0.00"  51%  46%  55°F  54°F  29.94"
Wed 09:00 AM  72.3°F  73°F  1 mph SW  3 mph  6 mph  0.00"  61%  55%  58°F  55°F  29.94"
Wed 08:00 AM  68.7°F  70°F  calm  2 mph  6 mph  0.00"  73%  62%  59°F  56°F  29.93"
Wed 07:00 AM  66.1°F  68°F  2 mph SW  1 mph  2 mph  0.00"  80%  67%  59°F  56°F  29.92"
Wed 06:00 AM  64.7°F  67°F  calm  1 mph  2 mph  0.00"  84%  69%  60°F  56°F  29.91"
Wed 05:00 AM  64.9°F  67°F  calm  1 mph  5 mph  0.00"  83%  68%  59°F  56°F  29.90"
Wed 04:00 AM  65.8°F  68°F  calm  1 mph  5 mph  0.00"  78%  67%  59°F  56°F  29.89"
Wed 03:00 AM  66.0°F  68°F  1 mph SW  1 mph  5 mph  0.00"  78%  66%  59°F  56°F  29.90"
Wed 02:00 AM  67.0°F  69°F  3 mph SW  2 mph  9 mph  0.00"  75%  65%  58°F  56°F  29.90"
Wed 01:00 AM  68.3°F  69°F  2 mph SW  3 mph  9 mph  0.00"  70%  62%  58°F  55°F  29.90"
Wed 12:00 AM  69.5°F  71°F  3 mph SW  3 mph  8 mph  0.00"  64%  59%  56°F  55°F  29.91"
Tue 11:00 PM  71.0°F  72°F  3 mph SW  4 mph  6 mph  0.00"  55%  55%  54°F  54°F  29.90"
Tue 10:00 PM  72.6°F  73°F  2 mph SW  4 mph  9 mph  0.00"  49%  50%  52°F  53°F  29.89"
Tue 09:00 PM  73.9°F  75°F  6 mph SW  5 mph  11 mph  0.00"  46%  45%  51°F  51°F  29.87"
Tue 08:00 PM  76.0°F  77°F  5 mph SW  6 mph  12 mph  0.00"  42%  41%  51°F  51°F  29.85"
Tue 07:00 PM  79.1°F  80°F  6 mph SW  6 mph  16 mph  0.00"  35%  35%  48°F  49°F  29.83"
Tue 06:00 PM  81.3°F  83°F  7 mph SW  7 mph  17 mph  0.00"  35%  30%  50°F  47°F  29.83"
Tue 05:00 PM  83.7°F  85°F  7 mph SW  7 mph  17 mph  0.00"  31%  27%  49°F  46°F  29.83"
Tue 04:00 PM  85.5°F  87°F  8 mph SW  8 mph  16 mph  0.00"  28%  25%  47°F  46°F  29.84"

  1. Current weather data. No green row appears if the current weather data is also the high or low for the current day.
  2. High temperature for the current day.
  3. Low temperature for the current day.

The Riverside (Orangecrest), California weather pages are a service of WeatherCurrents.
Copyright ©Thu Aug 16 03:33:04 PDT 2018  WeatherCurrents. All rights reserved. - Submit questions and comments - Privacy Policy

This page automatically refreshes every 10 minutes.